sensor_id;sensor_type;location;lat;lon;timestamp;P1;durP1;ratioP1;P2;durP2;ratioP2
14396;SDS011;50653;47.810;13.022;2024-01-30T00:01:49;2.97;;;2.43;;
14396;SDS011;50653;47.810;13.022;2024-01-30T00:04:15;2.90;;;2.60;;
14396;SDS011;50653;47.810;13.022;2024-01-30T00:06:42;3.60;;;2.50;;
14396;SDS011;50653;47.810;13.022;2024-01-30T00:09:08;2.67;;;2.30;;
14396;SDS011;50653;47.810;13.022;2024-01-30T00:11:35;2.43;;;2.23;;
14396;SDS011;50653;47.810;13.022;2024-01-30T00:14:01;2.73;;;2.53;;
14396;SDS011;50653;47.810;13.022;2024-01-30T00:16:27;2.80;;;2.60;;
14396;SDS011;50653;47.810;13.022;2024-01-30T00:18:53;3.60;;;3.40;;
14396;SDS011;50653;47.810;13.022;2024-01-30T00:21:19;2.70;;;2.53;;
14396;SDS011;50653;47.810;13.022;2024-01-30T00:23:45;2.33;;;2.20;;
14396;SDS011;50653;47.810;13.022;2024-01-30T00:26:11;2.57;;;2.37;;
14396;SDS011;50653;47.810;13.022;2024-01-30T00:28:37;7.10;;;3.33;;
14396;SDS011;50653;47.810;13.022;2024-01-30T00:31:03;3.13;;;2.90;;
14396;SDS011;50653;47.810;13.022;2024-01-30T00:33:29;3.37;;;3.03;;
14396;SDS011;50653;47.810;13.022;2024-01-30T00:35:55;2.27;;;2.07;;
14396;SDS011;50653;47.810;13.022;2024-01-30T00:38:21;3.50;;;3.30;;
14396;SDS011;50653;47.810;13.022;2024-01-30T00:40:47;3.50;;;3.20;;
14396;SDS011;50653;47.810;13.022;2024-01-30T00:43:13;4.23;;;3.20;;
14396;SDS011;50653;47.810;13.022;2024-01-30T00:45:40;3.60;;;3.30;;
14396;SDS011;50653;47.810;13.022;2024-01-30T00:48:05;9.33;;;5.43;;
14396;SDS011;50653;47.810;13.022;2024-01-30T00:50:31;5.90;;;5.43;;
14396;SDS011;50653;47.810;13.022;2024-01-30T00:52:57;5.73;;;5.10;;
14396;SDS011;50653;47.810;13.022;2024-01-30T00:55:22;6.17;;;5.17;;
14396;SDS011;50653;47.810;13.022;2024-01-30T00:57:48;8.97;;;6.20;;
14396;SDS011;50653;47.810;13.022;2024-01-30T01:00:14;5.50;;;5.10;;
14396;SDS011;50653;47.810;13.022;2024-01-30T01:02:43;7.77;;;5.83;;
14396;SDS011;50653;47.810;13.022;2024-01-30T01:05:09;6.23;;;5.73;;
14396;SDS011;50653;47.810;13.022;2024-01-30T01:07:34;6.57;;;5.23;;
14396;SDS011;50653;47.810;13.022;2024-01-30T01:10:00;8.10;;;7.40;;
14396;SDS011;50653;47.810;13.022;2024-01-30T01:12:27;8.00;;;6.83;;
14396;SDS011;50653;47.810;13.022;2024-01-30T01:14:53;8.20;;;7.40;;
14396;SDS011;50653;47.810;13.022;2024-01-30T01:17:19;6.83;;;6.03;;
14396;SDS011;50653;47.810;13.022;2024-01-30T01:19:44;7.90;;;6.47;;
14396;SDS011;50653;47.810;13.022;2024-01-30T01:22:10;6.53;;;5.50;;
14396;SDS011;50653;47.810;13.022;2024-01-30T01:24:36;5.80;;;5.20;;
14396;SDS011;50653;47.810;13.022;2024-01-30T01:27:02;5.23;;;4.83;;
14396;SDS011;50653;47.810;13.022;2024-01-30T01:29:28;6.43;;;4.80;;
14396;SDS011;50653;47.810;13.022;2024-01-30T01:31:57;5.90;;;5.17;;
14396;SDS011;50653;47.810;13.022;2024-01-30T01:34:23;4.40;;;3.90;;
14396;SDS011;50653;47.810;13.022;2024-01-30T01:36:49;5.30;;;4.90;;
14396;SDS011;50653;47.810;13.022;2024-01-30T01:39:16;4.80;;;4.17;;
14396;SDS011;50653;47.810;13.022;2024-01-30T01:41:42;7.10;;;4.27;;
14396;SDS011;50653;47.810;13.022;2024-01-30T01:44:08;5.70;;;3.20;;
14396;SDS011;50653;47.810;13.022;2024-01-30T01:46:35;4.43;;;4.03;;
14396;SDS011;50653;47.810;13.022;2024-01-30T01:49:02;4.23;;;3.93;;
14396;SDS011;50653;47.810;13.022;2024-01-30T01:51:29;3.07;;;2.87;;
14396;SDS011;50653;47.810;13.022;2024-01-30T01:53:57;3.70;;;3.37;;
14396;SDS011;50653;47.810;13.022;2024-01-30T01:56:24;2.40;;;2.20;;
14396;SDS011;50653;47.810;13.022;2024-01-30T01:58:51;3.63;;;3.33;;
14396;SDS011;50653;47.810;13.022;2024-01-30T02:01:20;3.40;;;3.10;;
14396;SDS011;50653;47.810;13.022;2024-01-30T02:03:46;3.03;;;2.83;;
14396;SDS011;50653;47.810;13.022;2024-01-30T02:06:13;3.13;;;2.93;;
14396;SDS011;50653;47.810;13.022;2024-01-30T02:08:39;3.40;;;3.17;;
14396;SDS011;50653;47.810;13.022;2024-01-30T02:11:05;3.10;;;2.90;;
14396;SDS011;50653;47.810;13.022;2024-01-30T02:13:31;2.00;;;1.90;;
14396;SDS011;50653;47.810;13.022;2024-01-30T02:15:57;3.80;;;3.07;;
14396;SDS011;50653;47.810;13.022;2024-01-30T02:18:22;2.83;;;2.63;;
14396;SDS011;50653;47.810;13.022;2024-01-30T02:20:48;2.47;;;2.37;;
14396;SDS011;50653;47.810;13.022;2024-01-30T02:23:15;3.30;;;3.10;;
14396;SDS011;50653;47.810;13.022;2024-01-30T02:25:42;2.27;;;2.07;;
14396;SDS011;50653;47.810;13.022;2024-01-30T02:28:11;2.67;;;2.47;;
14396;SDS011;50653;47.810;13.022;2024-01-30T02:30:38;2.60;;;2.40;;
14396;SDS011;50653;47.810;13.022;2024-01-30T02:33:10;2.50;;;2.30;;
14396;SDS011;50653;47.810;13.022;2024-01-30T02:35:36;3.40;;;3.20;;
14396;SDS011;50653;47.810;13.022;2024-01-30T02:38:01;4.40;;;2.83;;
14396;SDS011;50653;47.810;13.022;2024-01-30T02:40:27;3.77;;;2.90;;
14396;SDS011;50653;47.810;13.022;2024-01-30T02:42:53;2.93;;;2.50;;
14396;SDS011;50653;47.810;13.022;2024-01-30T02:45:19;2.97;;;2.77;;
14396;SDS011;50653;47.810;13.022;2024-01-30T02:47:45;2.77;;;2.60;;
14396;SDS011;50653;47.810;13.022;2024-01-30T02:50:11;2.03;;;1.93;;
14396;SDS011;50653;47.810;13.022;2024-01-30T02:52:37;2.90;;;2.77;;
14396;SDS011;50653;47.810;13.022;2024-01-30T02:55:02;2.60;;;2.20;;
14396;SDS011;50653;47.810;13.022;2024-01-30T02:57:28;2.80;;;2.60;;
14396;SDS011;50653;47.810;13.022;2024-01-30T02:59:54;3.60;;;3.30;;
14396;SDS011;50653;47.810;13.022;2024-01-30T03:02:20;3.07;;;2.87;;
14396;SDS011;50653;47.810;13.022;2024-01-30T03:04:46;3.03;;;2.80;;
14396;SDS011;50653;47.810;13.022;2024-01-30T03:07:12;3.40;;;3.10;;
14396;SDS011;50653;47.810;13.022;2024-01-30T03:09:37;3.37;;;3.07;;
14396;SDS011;50653;47.810;13.022;2024-01-30T03:12:03;3.83;;;3.30;;
14396;SDS011;50653;47.810;13.022;2024-01-30T03:14:32;4.13;;;3.77;;
14396;SDS011;50653;47.810;13.022;2024-01-30T03:16:58;2.87;;;2.67;;
14396;SDS011;50653;47.810;13.022;2024-01-30T03:19:24;3.73;;;3.37;;
14396;SDS011;50653;47.810;13.022;2024-01-30T03:21:50;3.40;;;3.07;;
14396;SDS011;50653;47.810;13.022;2024-01-30T03:24:16;2.77;;;2.60;;
14396;SDS011;50653;47.810;13.022;2024-01-30T03:26:42;4.37;;;3.37;;
14396;SDS011;50653;47.810;13.022;2024-01-30T03:29:08;4.10;;;3.67;;
14396;SDS011;50653;47.810;13.022;2024-01-30T03:31:34;2.97;;;2.70;;
14396;SDS011;50653;47.810;13.022;2024-01-30T03:34:00;2.70;;;2.60;;
14396;SDS011;50653;47.810;13.022;2024-01-30T03:36:26;3.23;;;3.03;;
14396;SDS011;50653;47.810;13.022;2024-01-30T03:38:53;3.77;;;2.50;;
14396;SDS011;50653;47.810;13.022;2024-01-30T03:41:18;4.00;;;3.77;;
14396;SDS011;50653;47.810;13.022;2024-01-30T03:43:44;3.73;;;3.40;;
14396;SDS011;50653;47.810;13.022;2024-01-30T03:46:13;3.57;;;2.17;;
14396;SDS011;50653;47.810;13.022;2024-01-30T03:48:39;3.07;;;2.87;;
14396;SDS011;50653;47.810;13.022;2024-01-30T03:51:05;2.80;;;2.60;;
14396;SDS011;50653;47.810;13.022;2024-01-30T03:53:31;2.33;;;2.20;;
14396;SDS011;50653;47.810;13.022;2024-01-30T03:55:56;3.57;;;3.27;;
14396;SDS011;50653;47.810;13.022;2024-01-30T03:58:22;3.40;;;3.20;;
14396;SDS011;50653;47.810;13.022;2024-01-30T04:00:48;3.27;;;2.60;;
14396;SDS011;50653;47.810;13.022;2024-01-30T04:03:16;2.40;;;2.30;;
14396;SDS011;50653;47.810;13.022;2024-01-30T04:05:42;2.90;;;2.63;;
14396;SDS011;50653;47.810;13.022;2024-01-30T04:08:08;2.00;;;1.90;;
14396;SDS011;50653;47.810;13.022;2024-01-30T04:10:34;3.10;;;2.90;;
14396;SDS011;50653;47.810;13.022;2024-01-30T04:13:00;3.80;;;1.80;;
14396;SDS011;50653;47.810;13.022;2024-01-30T04:15:26;3.77;;;3.47;;
14396;SDS011;50653;47.810;13.022;2024-01-30T04:17:53;3.50;;;2.80;;
14396;SDS011;50653;47.810;13.022;2024-01-30T04:20:18;2.63;;;2.43;;
14396;SDS011;50653;47.810;13.022;2024-01-30T04:22:44;3.40;;;3.20;;
14396;SDS011;50653;47.810;13.022;2024-01-30T04:25:11;2.83;;;2.63;;
14396;SDS011;50653;47.810;13.022;2024-01-30T04:27:37;3.03;;;2.83;;
14396;SDS011;50653;47.810;13.022;2024-01-30T04:30:03;2.30;;;2.10;;
14396;SDS011;50653;47.810;13.022;2024-01-30T04:32:30;2.30;;;2.10;;
14396;SDS011;50653;47.810;13.022;2024-01-30T04:34:57;2.70;;;2.50;;
14396;SDS011;50653;47.810;13.022;2024-01-30T04:37:22;2.17;;;2.00;;
14396;SDS011;50653;47.810;13.022;2024-01-30T04:39:48;3.13;;;2.83;;
14396;SDS011;50653;47.810;13.022;2024-01-30T04:42:14;2.00;;;1.90;;
14396;SDS011;50653;47.810;13.022;2024-01-30T04:44:40;1.90;;;1.80;;
14396;SDS011;50653;47.810;13.022;2024-01-30T04:47:05;2.53;;;2.20;;
14396;SDS011;50653;47.810;13.022;2024-01-30T04:49:34;2.53;;;2.03;;
14396;SDS011;50653;47.810;13.022;2024-01-30T04:52:00;1.20;;;1.03;;
14396;SDS011;50653;47.810;13.022;2024-01-30T04:54:25;1.47;;;1.37;;
14396;SDS011;50653;47.810;13.022;2024-01-30T04:56:51;1.90;;;1.80;;
14396;SDS011;50653;47.810;13.022;2024-01-30T04:59:17;1.60;;;1.50;;
14396;SDS011;50653;47.810;13.022;2024-01-30T05:01:43;1.97;;;1.67;;
14396;SDS011;50653;47.810;13.022;2024-01-30T05:04:08;1.40;;;1.30;;
14396;SDS011;50653;47.810;13.022;2024-01-30T05:06:34;1.67;;;1.57;;
14396;SDS011;50653;47.810;13.022;2024-01-30T05:09:00;2.43;;;1.70;;
14396;SDS011;50653;47.810;13.022;2024-01-30T05:11:26;0.97;;;0.90;;
14396;SDS011;50653;47.810;13.022;2024-01-30T05:13:51;1.80;;;1.70;;
14396;SDS011;50653;47.810;13.022;2024-01-30T05:16:17;1.43;;;1.23;;
14396;SDS011;50653;47.810;13.022;2024-01-30T05:18:43;1.53;;;1.43;;
14396;SDS011;50653;47.810;13.022;2024-01-30T05:21:09;1.53;;;1.40;;
14396;SDS011;50653;47.810;13.022;2024-01-30T05:23:35;1.50;;;1.40;;
14396;SDS011;50653;47.810;13.022;2024-01-30T05:26:01;1.43;;;1.33;;
14396;SDS011;50653;47.810;13.022;2024-01-30T05:28:28;1.30;;;1.20;;
14396;SDS011;50653;47.810;13.022;2024-01-30T05:30:55;1.93;;;1.10;;
14396;SDS011;50653;47.810;13.022;2024-01-30T05:33:21;1.57;;;1.47;;
14396;SDS011;50653;47.810;13.022;2024-01-30T05:35:47;1.30;;;1.20;;
14396;SDS011;50653;47.810;13.022;2024-01-30T05:38:13;1.40;;;1.10;;
14396;SDS011;50653;47.810;13.022;2024-01-30T05:40:41;1.30;;;1.20;;
14396;SDS011;50653;47.810;13.022;2024-01-30T05:43:06;1.87;;;1.20;;
14396;SDS011;50653;47.810;13.022;2024-01-30T05:45:33;1.40;;;1.10;;
14396;SDS011;50653;47.810;13.022;2024-01-30T05:48:00;1.93;;;1.50;;
14396;SDS011;50653;47.810;13.022;2024-01-30T05:50:26;1.23;;;1.13;;
14396;SDS011;50653;47.810;13.022;2024-01-30T05:52:52;1.53;;;1.43;;
14396;SDS011;50653;47.810;13.022;2024-01-30T05:55:18;1.40;;;1.30;;
14396;SDS011;50653;47.810;13.022;2024-01-30T05:57:44;1.43;;;1.33;;
14396;SDS011;50653;47.810;13.022;2024-01-30T06:00:09;1.30;;;1.20;;
14396;SDS011;50653;47.810;13.022;2024-01-30T06:02:36;1.53;;;1.40;;
14396;SDS011;50653;47.810;13.022;2024-01-30T06:05:01;1.23;;;1.13;;
14396;SDS011;50653;47.810;13.022;2024-01-30T06:07:27;1.37;;;1.27;;
14396;SDS011;50653;47.810;13.022;2024-01-30T06:09:53;1.80;;;1.60;;
14396;SDS011;50653;47.810;13.022;2024-01-30T06:12:18;1.70;;;1.60;;
14396;SDS011;50653;47.810;13.022;2024-01-30T06:14:44;1.77;;;1.33;;
14396;SDS011;50653;47.810;13.022;2024-01-30T06:17:10;2.00;;;1.10;;
14396;SDS011;50653;47.810;13.022;2024-01-30T06:19:37;2.00;;;1.50;;
14396;SDS011;50653;47.810;13.022;2024-01-30T06:22:04;1.97;;;1.77;;
14396;SDS011;50653;47.810;13.022;2024-01-30T06:24:30;1.80;;;1.70;;
14396;SDS011;50653;47.810;13.022;2024-01-30T06:26:55;1.20;;;1.10;;
14396;SDS011;50653;47.810;13.022;2024-01-30T06:29:21;1.53;;;0.90;;
14396;SDS011;50653;47.810;13.022;2024-01-30T06:31:48;1.60;;;1.20;;
14396;SDS011;50653;47.810;13.022;2024-01-30T06:34:13;1.30;;;1.20;;
14396;SDS011;50653;47.810;13.022;2024-01-30T06:36:39;1.10;;;1.00;;
14396;SDS011;50653;47.810;13.022;2024-01-30T06:39:05;5.80;;;1.27;;
14396;SDS011;50653;47.810;13.022;2024-01-30T06:41:31;2.17;;;1.50;;
14396;SDS011;50653;47.810;13.022;2024-01-30T06:43:56;2.00;;;1.73;;
14396;SDS011;50653;47.810;13.022;2024-01-30T06:46:22;1.70;;;1.60;;
14396;SDS011;50653;47.810;13.022;2024-01-30T06:48:48;1.27;;;1.17;;
14396;SDS011;50653;47.810;13.022;2024-01-30T06:51:14;2.03;;;1.83;;
14396;SDS011;50653;47.810;13.022;2024-01-30T06:53:39;2.20;;;1.27;;
14396;SDS011;50653;47.810;13.022;2024-01-30T06:56:05;3.20;;;1.83;;
14396;SDS011;50653;47.810;13.022;2024-01-30T06:58:31;1.20;;;0.97;;
14396;SDS011;50653;47.810;13.022;2024-01-30T07:00:57;1.40;;;1.07;;
14396;SDS011;50653;47.810;13.022;2024-01-30T07:03:23;1.43;;;1.33;;
14396;SDS011;50653;47.810;13.022;2024-01-30T07:05:49;2.17;;;1.43;;
14396;SDS011;50653;47.810;13.022;2024-01-30T07:08:15;1.90;;;1.77;;
14396;SDS011;50653;47.810;13.022;2024-01-30T07:10:44;1.67;;;1.53;;
14396;SDS011;50653;47.810;13.022;2024-01-30T07:13:13;1.93;;;1.73;;
14396;SDS011;50653;47.810;13.022;2024-01-30T07:15:41;1.90;;;1.47;;
14396;SDS011;50653;47.810;13.022;2024-01-30T07:18:07;1.60;;;1.50;;
14396;SDS011;50653;47.810;13.022;2024-01-30T07:20:34;1.80;;;1.70;;
14396;SDS011;50653;47.810;13.022;2024-01-30T07:23:00;2.63;;;1.87;;
14396;SDS011;50653;47.810;13.022;2024-01-30T07:25:27;1.53;;;1.43;;
14396;SDS011;50653;47.810;13.022;2024-01-30T07:27:54;2.43;;;2.00;;
14396;SDS011;50653;47.810;13.022;2024-01-30T07:30:20;1.50;;;1.40;;
14396;SDS011;50653;47.810;13.022;2024-01-30T07:32:46;1.83;;;1.73;;
14396;SDS011;50653;47.810;13.022;2024-01-30T07:35:13;2.47;;;2.00;;
14396;SDS011;50653;47.810;13.022;2024-01-30T07:37:39;2.33;;;1.87;;
14396;SDS011;50653;47.810;13.022;2024-01-30T07:40:05;2.33;;;1.70;;
14396;SDS011;50653;47.810;13.022;2024-01-30T07:42:31;2.93;;;1.57;;
14396;SDS011;50653;47.810;13.022;2024-01-30T07:44:58;1.70;;;1.60;;
14396;SDS011;50653;47.810;13.022;2024-01-30T07:47:24;2.20;;;1.80;;
14396;SDS011;50653;47.810;13.022;2024-01-30T07:49:50;2.27;;;1.30;;
14396;SDS011;50653;47.810;13.022;2024-01-30T07:52:16;3.87;;;2.03;;
14396;SDS011;50653;47.810;13.022;2024-01-30T07:54:42;1.53;;;1.43;;
14396;SDS011;50653;47.810;13.022;2024-01-30T07:57:07;3.07;;;1.60;;
14396;SDS011;50653;47.810;13.022;2024-01-30T07:59:33;1.30;;;1.20;;
14396;SDS011;50653;47.810;13.022;2024-01-30T08:01:59;4.43;;;1.73;;
14396;SDS011;50653;47.810;13.022;2024-01-30T08:04:25;1.87;;;1.47;;
14396;SDS011;50653;47.810;13.022;2024-01-30T08:06:51;1.50;;;1.40;;
14396;SDS011;50653;47.810;13.022;2024-01-30T08:09:16;2.10;;;1.90;;
14396;SDS011;50653;47.810;13.022;2024-01-30T08:11:42;2.10;;;1.90;;
14396;SDS011;50653;47.810;13.022;2024-01-30T08:14:08;2.50;;;1.50;;
14396;SDS011;50653;47.810;13.022;2024-01-30T08:16:33;1.90;;;1.67;;
14396;SDS011;50653;47.810;13.022;2024-01-30T08:18:59;3.40;;;2.03;;
14396;SDS011;50653;47.810;13.022;2024-01-30T08:21:26;1.53;;;1.20;;
14396;SDS011;50653;47.810;13.022;2024-01-30T08:23:52;1.43;;;1.33;;
14396;SDS011;50653;47.810;13.022;2024-01-30T08:26:17;3.50;;;1.47;;
14396;SDS011;50653;47.810;13.022;2024-01-30T08:28:43;1.33;;;1.23;;
14396;SDS011;50653;47.810;13.022;2024-01-30T08:31:10;2.70;;;1.40;;
14396;SDS011;50653;47.810;13.022;2024-01-30T08:33:37;1.07;;;0.97;;
14396;SDS011;50653;47.810;13.022;2024-01-30T08:36:03;1.20;;;1.10;;
14396;SDS011;50653;47.810;13.022;2024-01-30T08:38:28;2.30;;;1.53;;
14396;SDS011;50653;47.810;13.022;2024-01-30T08:40:56;3.60;;;2.17;;
14396;SDS011;50653;47.810;13.022;2024-01-30T08:43:24;2.13;;;1.97;;
14396;SDS011;50653;47.810;13.022;2024-01-30T08:45:50;3.23;;;2.37;;
14396;SDS011;50653;47.810;13.022;2024-01-30T08:48:16;1.10;;;1.00;;
14396;SDS011;50653;47.810;13.022;2024-01-30T08:50:43;2.20;;;1.37;;
14396;SDS011;50653;47.810;13.022;2024-01-30T08:53:13;1.53;;;1.43;;
14396;SDS011;50653;47.810;13.022;2024-01-30T08:55:38;1.40;;;1.30;;
14396;SDS011;50653;47.810;13.022;2024-01-30T08:58:04;1.30;;;1.20;;
14396;SDS011;50653;47.810;13.022;2024-01-30T09:00:33;1.60;;;1.00;;
14396;SDS011;50653;47.810;13.022;2024-01-30T09:02:59;1.27;;;0.90;;
14396;SDS011;50653;47.810;13.022;2024-01-30T09:05:25;3.70;;;1.20;;
14396;SDS011;50653;47.810;13.022;2024-01-30T09:07:50;3.73;;;1.50;;
14396;SDS011;50653;47.810;13.022;2024-01-30T09:10:16;1.40;;;1.30;;
14396;SDS011;50653;47.810;13.022;2024-01-30T09:12:41;3.37;;;1.50;;
14396;SDS011;50653;47.810;13.022;2024-01-30T09:15:07;1.80;;;1.70;;
14396;SDS011;50653;47.810;13.022;2024-01-30T09:17:33;0.80;;;0.70;;
14396;SDS011;50653;47.810;13.022;2024-01-30T09:19:59;1.07;;;0.97;;
14396;SDS011;50653;47.810;13.022;2024-01-30T09:22:25;1.27;;;1.17;;
14396;SDS011;50653;47.810;13.022;2024-01-30T09:24:51;0.87;;;0.77;;
14396;SDS011;50653;47.810;13.022;2024-01-30T09:27:17;1.27;;;1.17;;
14396;SDS011;50653;47.810;13.022;2024-01-30T09:29:42;1.40;;;1.10;;
14396;SDS011;50653;47.810;13.022;2024-01-30T09:32:08;3.00;;;1.30;;
14396;SDS011;50653;47.810;13.022;2024-01-30T09:34:34;1.93;;;0.83;;
14396;SDS011;50653;47.810;13.022;2024-01-30T09:36:59;1.43;;;1.20;;
14396;SDS011;50653;47.810;13.022;2024-01-30T09:39:25;1.73;;;0.73;;
14396;SDS011;50653;47.810;13.022;2024-01-30T09:41:55;1.33;;;1.23;;
14396;SDS011;50653;47.810;13.022;2024-01-30T09:44:28;1.27;;;1.07;;
14396;SDS011;50653;47.810;13.022;2024-01-30T09:46:55;1.80;;;0.80;;
14396;SDS011;50653;47.810;13.022;2024-01-30T09:49:28;1.40;;;0.90;;
14396;SDS011;50653;47.810;13.022;2024-01-30T09:51:56;0.80;;;0.70;;
14396;SDS011;50653;47.810;13.022;2024-01-30T09:54:23;0.90;;;0.60;;
14396;SDS011;50653;47.810;13.022;2024-01-30T09:56:48;1.00;;;0.60;;
14396;SDS011;50653;47.810;13.022;2024-01-30T09:59:14;0.90;;;0.77;;
14396;SDS011;50653;47.810;13.022;2024-01-30T10:01:40;0.70;;;0.70;;
14396;SDS011;50653;47.810;13.022;2024-01-30T10:04:07;1.60;;;0.80;;
14396;SDS011;50653;47.810;13.022;2024-01-30T10:06:33;1.17;;;0.60;;
14396;SDS011;50653;47.810;13.022;2024-01-30T10:08:59;1.43;;;1.23;;
14396;SDS011;50653;47.810;13.022;2024-01-30T10:11:25;5.40;;;1.30;;
14396;SDS011;50653;47.810;13.022;2024-01-30T10:13:50;1.57;;;0.90;;
14396;SDS011;50653;47.810;13.022;2024-01-30T10:16:16;1.60;;;1.10;;
14396;SDS011;50653;47.810;13.022;2024-01-30T10:18:42;0.97;;;0.80;;
14396;SDS011;50653;47.810;13.022;2024-01-30T10:21:08;1.90;;;1.07;;
14396;SDS011;50653;47.810;13.022;2024-01-30T10:23:35;0.83;;;0.70;;
14396;SDS011;50653;47.810;13.022;2024-01-30T10:26:02;0.70;;;0.53;;
14396;SDS011;50653;47.810;13.022;2024-01-30T10:28:29;0.80;;;0.50;;
14396;SDS011;50653;47.810;13.022;2024-01-30T10:30:59;1.00;;;0.80;;
14396;SDS011;50653;47.810;13.022;2024-01-30T10:33:25;1.80;;;0.73;;
14396;SDS011;50653;47.810;13.022;2024-01-30T10:36:00;2.50;;;0.80;;
14396;SDS011;50653;47.810;13.022;2024-01-30T10:38:29;0.80;;;0.60;;
14396;SDS011;50653;47.810;13.022;2024-01-30T10:40:59;0.70;;;0.67;;
14396;SDS011;50653;47.810;13.022;2024-01-30T10:43:33;1.00;;;0.70;;
14396;SDS011;50653;47.810;13.022;2024-01-30T10:46:07;1.63;;;0.80;;
14396;SDS011;50653;47.810;13.022;2024-01-30T10:48:42;1.03;;;0.93;;
14396;SDS011;50653;47.810;13.022;2024-01-30T10:51:09;0.90;;;0.67;;
14396;SDS011;50653;47.810;13.022;2024-01-30T10:53:37;1.00;;;0.90;;
14396;SDS011;50653;47.810;13.022;2024-01-30T10:56:04;0.93;;;0.67;;
14396;SDS011;50653;47.810;13.022;2024-01-30T10:58:31;1.27;;;0.60;;
14396;SDS011;50653;47.810;13.022;2024-01-30T11:00:56;0.80;;;0.70;;
14396;SDS011;50653;47.810;13.022;2024-01-30T11:03:23;1.10;;;0.90;;
14396;SDS011;50653;47.810;13.022;2024-01-30T11:05:50;1.27;;;0.90;;
14396;SDS011;50653;47.810;13.022;2024-01-30T11:08:24;0.90;;;0.60;;
14396;SDS011;50653;47.810;13.022;2024-01-30T11:10:56;0.77;;;0.60;;
14396;SDS011;50653;47.810;13.022;2024-01-30T11:13:29;0.70;;;0.60;;
14396;SDS011;50653;47.810;13.022;2024-01-30T11:15:55;1.00;;;0.73;;
14396;SDS011;50653;47.810;13.022;2024-01-30T11:18:25;0.63;;;0.60;;
14396;SDS011;50653;47.810;13.022;2024-01-30T11:20:55;1.00;;;0.90;;
14396;SDS011;50653;47.810;13.022;2024-01-30T11:23:22;1.13;;;0.50;;
14396;SDS011;50653;47.810;13.022;2024-01-30T11:25:48;0.70;;;0.60;;
14396;SDS011;50653;47.810;13.022;2024-01-30T11:28:14;0.80;;;0.50;;
14396;SDS011;50653;47.810;13.022;2024-01-30T11:30:43;0.70;;;0.50;;
14396;SDS011;50653;47.810;13.022;2024-01-30T11:33:13;0.80;;;0.70;;
14396;SDS011;50653;47.810;13.022;2024-01-30T11:35:43;0.80;;;0.60;;
14396;SDS011;50653;47.810;13.022;2024-01-30T11:38:11;0.80;;;0.50;;
14396;SDS011;50653;47.810;13.022;2024-01-30T11:40:38;1.10;;;0.70;;
14396;SDS011;50653;47.810;13.022;2024-01-30T11:43:06;0.60;;;0.50;;
14396;SDS011;50653;47.810;13.022;2024-01-30T11:45:33;0.70;;;0.40;;
14396;SDS011;50653;47.810;13.022;2024-01-30T11:47:59;0.60;;;0.40;;
14396;SDS011;50653;47.810;13.022;2024-01-30T11:50:28;0.73;;;0.50;;
14396;SDS011;50653;47.810;13.022;2024-01-30T11:52:59;0.77;;;0.50;;
14396;SDS011;50653;47.810;13.022;2024-01-30T11:55:25;0.70;;;0.50;;
14396;SDS011;50653;47.810;13.022;2024-01-30T11:57:55;0.50;;;0.40;;
14396;SDS011;50653;47.810;13.022;2024-01-30T12:00:21;0.83;;;0.70;;
14396;SDS011;50653;47.810;13.022;2024-01-30T12:02:50;1.27;;;0.60;;
14396;SDS011;50653;47.810;13.022;2024-01-30T12:05:20;0.80;;;0.60;;
14396;SDS011;50653;47.810;13.022;2024-01-30T12:07:47;0.70;;;0.50;;
14396;SDS011;50653;47.810;13.022;2024-01-30T12:10:13;0.60;;;0.50;;
14396;SDS011;50653;47.810;13.022;2024-01-30T12:12:39;0.80;;;0.50;;
14396;SDS011;50653;47.810;13.022;2024-01-30T12:15:07;0.70;;;0.40;;
14396;SDS011;50653;47.810;13.022;2024-01-30T12:17:33;1.17;;;0.43;;
14396;SDS011;50653;47.810;13.022;2024-01-30T12:20:10;0.80;;;0.60;;
14396;SDS011;50653;47.810;13.022;2024-01-30T12:22:43;0.80;;;0.60;;
14396;SDS011;50653;47.810;13.022;2024-01-30T12:25:11;0.80;;;0.60;;
14396;SDS011;50653;47.810;13.022;2024-01-30T12:27:37;0.70;;;0.60;;
14396;SDS011;50653;47.810;13.022;2024-01-30T12:30:05;0.60;;;0.40;;
14396;SDS011;50653;47.810;13.022;2024-01-30T12:32:35;0.60;;;0.40;;
14396;SDS011;50653;47.810;13.022;2024-01-30T12:35:02;0.70;;;0.40;;
14396;SDS011;50653;47.810;13.022;2024-01-30T12:37:29;0.60;;;0.50;;
14396;SDS011;50653;47.810;13.022;2024-01-30T12:39:55;0.60;;;0.50;;
14396;SDS011;50653;47.810;13.022;2024-01-30T12:42:21;0.77;;;0.50;;
14396;SDS011;50653;47.810;13.022;2024-01-30T12:44:48;0.73;;;0.50;;
14396;SDS011;50653;47.810;13.022;2024-01-30T12:47:14;0.70;;;0.50;;
14396;SDS011;50653;47.810;13.022;2024-01-30T12:49:42;0.90;;;0.50;;
14396;SDS011;50653;47.810;13.022;2024-01-30T12:52:14;0.70;;;0.50;;
14396;SDS011;50653;47.810;13.022;2024-01-30T12:54:41;0.70;;;0.60;;
14396;SDS011;50653;47.810;13.022;2024-01-30T12:57:07;1.10;;;0.50;;
14396;SDS011;50653;47.810;13.022;2024-01-30T12:59:33;0.60;;;0.50;;
14396;SDS011;50653;47.810;13.022;2024-01-30T13:02:00;0.50;;;0.40;;
14396;SDS011;50653;47.810;13.022;2024-01-30T13:04:27;0.77;;;0.50;;
14396;SDS011;50653;47.810;13.022;2024-01-30T13:06:53;0.80;;;0.40;;
14396;SDS011;50653;47.810;13.022;2024-01-30T13:09:18;1.03;;;0.47;;
14396;SDS011;50653;47.810;13.022;2024-01-30T13:11:44;0.70;;;0.50;;
14396;SDS011;50653;47.810;13.022;2024-01-30T13:14:10;0.60;;;0.50;;
14396;SDS011;50653;47.810;13.022;2024-01-30T13:16:36;0.70;;;0.50;;
14396;SDS011;50653;47.810;13.022;2024-01-30T13:19:02;1.20;;;0.40;;
14396;SDS011;50653;47.810;13.022;2024-01-30T13:21:28;0.60;;;0.50;;
14396;SDS011;50653;47.810;13.022;2024-01-30T13:23:54;0.60;;;0.60;;
14396;SDS011;50653;47.810;13.022;2024-01-30T13:26:22;0.80;;;0.50;;
14396;SDS011;50653;47.810;13.022;2024-01-30T13:28:48;0.50;;;0.40;;
14396;SDS011;50653;47.810;13.022;2024-01-30T13:31:14;3.00;;;0.60;;
14396;SDS011;50653;47.810;13.022;2024-01-30T13:33:40;0.60;;;0.50;;
14396;SDS011;50653;47.810;13.022;2024-01-30T13:36:10;0.77;;;0.50;;
14396;SDS011;50653;47.810;13.022;2024-01-30T13:38:36;0.97;;;0.70;;
14396;SDS011;50653;47.810;13.022;2024-01-30T13:41:03;0.50;;;0.50;;
14396;SDS011;50653;47.810;13.022;2024-01-30T13:43:28;0.97;;;0.60;;
14396;SDS011;50653;47.810;13.022;2024-01-30T13:45:54;1.00;;;0.60;;
14396;SDS011;50653;47.810;13.022;2024-01-30T13:48:20;2.07;;;0.90;;
14396;SDS011;50653;47.810;13.022;2024-01-30T13:50:46;0.80;;;0.60;;
14396;SDS011;50653;47.810;13.022;2024-01-30T13:53:12;1.17;;;1.07;;
14396;SDS011;50653;47.810;13.022;2024-01-30T13:55:38;0.80;;;0.60;;
14396;SDS011;50653;47.810;13.022;2024-01-30T13:58:07;5.47;;;1.10;;
14396;SDS011;50653;47.810;13.022;2024-01-30T14:00:33;2.23;;;0.80;;
14396;SDS011;50653;47.810;13.022;2024-01-30T14:02:58;1.27;;;0.70;;
14396;SDS011;50653;47.810;13.022;2024-01-30T14:05:25;1.17;;;0.97;;
14396;SDS011;50653;47.810;13.022;2024-01-30T14:07:52;3.10;;;1.00;;
14396;SDS011;50653;47.810;13.022;2024-01-30T14:10:18;2.03;;;1.40;;
14396;SDS011;50653;47.810;13.022;2024-01-30T14:12:44;1.80;;;1.70;;
14396;SDS011;50653;47.810;13.022;2024-01-30T14:15:10;2.90;;;1.73;;
14396;SDS011;50653;47.810;13.022;2024-01-30T14:17:36;1.63;;;1.53;;
14396;SDS011;50653;47.810;13.022;2024-01-30T14:20:02;1.73;;;1.47;;
14396;SDS011;50653;47.810;13.022;2024-01-30T14:22:32;1.57;;;1.30;;
14396;SDS011;50653;47.810;13.022;2024-01-30T14:24:59;1.23;;;1.10;;
14396;SDS011;50653;47.810;13.022;2024-01-30T14:27:25;1.17;;;1.00;;
14396;SDS011;50653;47.810;13.022;2024-01-30T14:29:51;1.63;;;1.53;;